sensor_id;sensor_type;location;lat;lon;timestamp;temperature;humidity
76305;DHT22;65111;50.536;19.204;2023-04-01T00:00:32;6.30;90.80
76305;DHT22;65111;50.536;19.204;2023-04-01T00:02:59;6.30;90.60
76305;DHT22;65111;50.536;19.204;2023-04-01T00:05:26;6.20;90.90
76305;DHT22;65111;50.536;19.204;2023-04-01T00:07:52;6.10;90.80
76305;DHT22;65111;50.536;19.204;2023-04-01T00:10:18;6.10;91.00
76305;DHT22;65111;50.536;19.204;2023-04-01T00:12:44;5.90;90.90
76305;DHT22;65111;50.536;19.204;2023-04-01T00:15:11;5.90;91.10
76305;DHT22;65111;50.536;19.204;2023-04-01T00:17:38;5.80;91.20
76305;DHT22;65111;50.536;19.204;2023-04-01T00:20:05;5.70;91.30
76305;DHT22;65111;50.536;19.204;2023-04-01T00:22:32;5.80;91.30
76305;DHT22;65111;50.536;19.204;2023-04-01T00:24:59;5.60;91.50
76305;DHT22;65111;50.536;19.204;2023-04-01T00:27:25;5.60;91.60
76305;DHT22;65111;50.536;19.204;2023-04-01T00:29:51;5.70;91.60
76305;DHT22;65111;50.536;19.204;2023-04-01T00:32:17;5.60;91.70
76305;DHT22;65111;50.536;19.204;2023-04-01T00:34:43;5.60;91.70
76305;DHT22;65111;50.536;19.204;2023-04-01T00:37:10;5.60;91.70
76305;DHT22;65111;50.536;19.204;2023-04-01T00:39:37;5.70;91.90
76305;DHT22;65111;50.536;19.204;2023-04-01T00:42:03;5.80;91.90
76305;DHT22;65111;50.536;19.204;2023-04-01T00:44:33;5.80;92.10
76305;DHT22;65111;50.536;19.204;2023-04-01T00:47:03;5.80;92.00
76305;DHT22;65111;50.536;19.204;2023-04-01T00:49:45;5.90;92.10
76305;DHT22;65111;50.536;19.204;2023-04-01T00:52:14;5.80;92.00
76305;DHT22;65111;50.536;19.204;2023-04-01T00:54:44;5.80;92.20
76305;DHT22;65111;50.536;19.204;2023-04-01T00:57:34;5.80;92.30
76305;DHT22;65111;50.536;19.204;2023-04-01T01:00:05;6.10;92.20
76305;DHT22;65111;50.536;19.204;2023-04-01T01:02:33;6.10;92.10
76305;DHT22;65111;50.536;19.204;2023-04-01T01:05:00;6.10;91.80
76305;DHT22;65111;50.536;19.204;2023-04-01T01:10:21;6.10;92.00
76305;DHT22;65111;50.536;19.204;2023-04-01T01:15:30;6.00;92.20
76305;DHT22;65111;50.536;19.204;2023-04-01T01:35:46;6.30;92.60
76305;DHT22;65111;50.536;19.204;2023-04-01T01:38:16;6.50;92.40
76305;DHT22;65111;50.536;19.204;2023-04-01T01:40:45;6.70;92.40
76305;DHT22;65111;50.536;19.204;2023-04-01T01:43:16;6.80;92.30
76305;DHT22;65111;50.536;19.204;2023-04-01T01:45:47;6.70;92.20
76305;DHT22;65111;50.536;19.204;2023-04-01T01:48:15;7.00;92.10
76305;DHT22;65111;50.536;19.204;2023-04-01T01:50:44;6.90;92.10
76305;DHT22;65111;50.536;19.204;2023-04-01T01:53:12;6.80;92.00
76305;DHT22;65111;50.536;19.204;2023-04-01T01:55:48;7.10;91.90
76305;DHT22;65111;50.536;19.204;2023-04-01T01:58:22;7.00;92.00
76305;DHT22;65111;50.536;19.204;2023-04-01T02:00:53;7.10;91.70
76305;DHT22;65111;50.536;19.204;2023-04-01T02:03:21;7.10;91.60
76305;DHT22;65111;50.536;19.204;2023-04-01T02:05:51;7.20;91.50
76305;DHT22;65111;50.536;19.204;2023-04-01T02:08:24;7.10;91.50
76305;DHT22;65111;50.536;19.204;2023-04-01T02:10:57;7.10;91.40
76305;DHT22;65111;50.536;19.204;2023-04-01T02:16:44;7.20;91.20
76305;DHT22;65111;50.536;19.204;2023-04-01T02:19:13;7.10;91.10
76305;DHT22;65111;50.536;19.204;2023-04-01T02:21:41;7.10;91.10
76305;DHT22;65111;50.536;19.204;2023-04-01T02:24:11;7.20;91.10
76305;DHT22;65111;50.536;19.204;2023-04-01T02:26:38;7.10;91.10
76305;DHT22;65111;50.536;19.204;2023-04-01T02:29:06;7.10;91.00
76305;DHT22;65111;50.536;19.204;2023-04-01T02:31:35;7.20;91.00
76305;DHT22;65111;50.536;19.204;2023-04-01T02:34:03;7.10;91.00
76305;DHT22;65111;50.536;19.204;2023-04-01T02:36:30;7.10;91.00
76305;DHT22;65111;50.536;19.204;2023-04-01T02:38:57;7.20;91.00
76305;DHT22;65111;50.536;19.204;2023-04-01T02:41:28;7.20;91.20
76305;DHT22;65111;50.536;19.204;2023-04-01T02:43:54;7.40;91.00
76305;DHT22;65111;50.536;19.204;2023-04-01T02:46:20;7.20;90.80
76305;DHT22;65111;50.536;19.204;2023-04-01T02:48:46;7.30;90.60
76305;DHT22;65111;50.536;19.204;2023-04-01T02:51:12;7.30;90.60
76305;DHT22;65111;50.536;19.204;2023-04-01T02:53:38;7.20;90.60
76305;DHT22;65111;50.536;19.204;2023-04-01T02:56:04;7.30;90.70
76305;DHT22;65111;50.536;19.204;2023-04-01T02:58:30;7.30;90.70
76305;DHT22;65111;50.536;19.204;2023-04-01T03:00:56;7.20;90.70
76305;DHT22;65111;50.536;19.204;2023-04-01T03:03:21;7.30;90.90
76305;DHT22;65111;50.536;19.204;2023-04-01T03:05:47;7.10;90.90
76305;DHT22;65111;50.536;19.204;2023-04-01T03:08:13;7.40;90.90
76305;DHT22;65111;50.536;19.204;2023-04-01T03:10:39;7.30;90.90
76305;DHT22;65111;50.536;19.204;2023-04-01T03:13:05;7.40;90.70
76305;DHT22;65111;50.536;19.204;2023-04-01T03:15:31;7.40;90.70
76305;DHT22;65111;50.536;19.204;2023-04-01T03:17:57;7.50;90.70
76305;DHT22;65111;50.536;19.204;2023-04-01T03:20:23;7.60;90.50
76305;DHT22;65111;50.536;19.204;2023-04-01T03:22:49;7.40;90.40
76305;DHT22;65111;50.536;19.204;2023-04-01T03:25:15;7.50;90.40
76305;DHT22;65111;50.536;19.204;2023-04-01T03:27:41;7.50;90.40
76305;DHT22;65111;50.536;19.204;2023-04-01T03:30:08;7.50;90.30
76305;DHT22;65111;50.536;19.204;2023-04-01T03:32:35;7.60;90.20
76305;DHT22;65111;50.536;19.204;2023-04-01T03:35:00;7.60;90.20
76305;DHT22;65111;50.536;19.204;2023-04-01T03:37:26;7.60;90.20
76305;DHT22;65111;50.536;19.204;2023-04-01T03:39:52;7.60;90.30
76305;DHT22;65111;50.536;19.204;2023-04-01T03:42:18;7.60;90.30
76305;DHT22;65111;50.536;19.204;2023-04-01T03:44:44;7.50;90.10
76305;DHT22;65111;50.536;19.204;2023-04-01T03:47:11;7.50;90.00
76305;DHT22;65111;50.536;19.204;2023-04-01T03:49:37;7.50;90.10
76305;DHT22;65111;50.536;19.204;2023-04-01T03:52:03;7.50;90.10
76305;DHT22;65111;50.536;19.204;2023-04-01T03:54:29;7.60;89.90
76305;DHT22;65111;50.536;19.204;2023-04-01T03:56:54;7.50;89.90
76305;DHT22;65111;50.536;19.204;2023-04-01T03:59:23;7.40;90.00
76305;DHT22;65111;50.536;19.204;2023-04-01T04:01:48;7.40;90.00
76305;DHT22;65111;50.536;19.204;2023-04-01T04:04:15;7.30;90.20
76305;DHT22;65111;50.536;19.204;2023-04-01T04:06:41;7.30;90.50
76305;DHT22;65111;50.536;19.204;2023-04-01T04:09:07;7.30;90.50
76305;DHT22;65111;50.536;19.204;2023-04-01T04:11:33;7.30;90.70
76305;DHT22;65111;50.536;19.204;2023-04-01T04:13:59;7.30;90.60
76305;DHT22;65111;50.536;19.204;2023-04-01T04:16:25;7.40;90.50
76305;DHT22;65111;50.536;19.204;2023-04-01T04:18:51;7.30;90.60
76305;DHT22;65111;50.536;19.204;2023-04-01T04:21:17;7.50;90.50
76305;DHT22;65111;50.536;19.204;2023-04-01T04:23:43;7.60;90.30
76305;DHT22;65111;50.536;19.204;2023-04-01T04:26:11;7.70;90.30
76305;DHT22;65111;50.536;19.204;2023-04-01T04:28:38;7.80;90.30
76305;DHT22;65111;50.536;19.204;2023-04-01T04:31:05;7.70;90.30
76305;DHT22;65111;50.536;19.204;2023-04-01T04:33:32;7.80;90.20
76305;DHT22;65111;50.536;19.204;2023-04-01T04:35:59;7.80;90.20
76305;DHT22;65111;50.536;19.204;2023-04-01T04:38:26;7.90;90.20
76305;DHT22;65111;50.536;19.204;2023-04-01T04:40:52;7.90;90.10
76305;DHT22;65111;50.536;19.204;2023-04-01T04:43:18;8.00;90.10
76305;DHT22;65111;50.536;19.204;2023-04-01T04:45:45;8.00;89.90
76305;DHT22;65111;50.536;19.204;2023-04-01T04:48:14;8.00;89.80
76305;DHT22;65111;50.536;19.204;2023-04-01T04:50:50;8.10;89.70
76305;DHT22;65111;50.536;19.204;2023-04-01T04:53:18;8.10;89.80
76305;DHT22;65111;50.536;19.204;2023-04-01T04:55:45;8.10;89.70
76305;DHT22;65111;50.536;19.204;2023-04-01T04:58:12;8.20;89.60
76305;DHT22;65111;50.536;19.204;2023-04-01T05:00:38;8.30;89.50
76305;DHT22;65111;50.536;19.204;2023-04-01T05:03:04;8.40;89.40
76305;DHT22;65111;50.536;19.204;2023-04-01T05:05:30;8.50;89.30
76305;DHT22;65111;50.536;19.204;2023-04-01T05:07:55;8.60;89.30
76305;DHT22;65111;50.536;19.204;2023-04-01T05:10:21;8.60;89.10
76305;DHT22;65111;50.536;19.204;2023-04-01T05:12:47;8.40;89.10
76305;DHT22;65111;50.536;19.204;2023-04-01T05:15:13;8.70;89.00
76305;DHT22;65111;50.536;19.204;2023-04-01T05:17:40;8.80;89.00
76305;DHT22;65111;50.536;19.204;2023-04-01T05:20:07;9.10;88.80
76305;DHT22;65111;50.536;19.204;2023-04-01T05:22:33;9.20;88.40
76305;DHT22;65111;50.536;19.204;2023-04-01T05:24:59;9.30;88.00
76305;DHT22;65111;50.536;19.204;2023-04-01T05:27:25;9.30;87.50
76305;DHT22;65111;50.536;19.204;2023-04-01T05:29:51;9.40;87.40
76305;DHT22;65111;50.536;19.204;2023-04-01T05:32:17;9.50;87.30
76305;DHT22;65111;50.536;19.204;2023-04-01T05:34:43;9.50;87.40
76305;DHT22;65111;50.536;19.204;2023-04-01T05:37:09;9.60;87.30
76305;DHT22;65111;50.536;19.204;2023-04-01T05:39:38;9.60;87.00
76305;DHT22;65111;50.536;19.204;2023-04-01T05:42:08;9.70;86.60
76305;DHT22;65111;50.536;19.204;2023-04-01T05:44:35;9.60;86.50
76305;DHT22;65111;50.536;19.204;2023-04-01T05:47:02;9.60;86.40
76305;DHT22;65111;50.536;19.204;2023-04-01T05:49:28;9.60;86.50
76305;DHT22;65111;50.536;19.204;2023-04-01T05:51:54;9.60;86.70
76305;DHT22;65111;50.536;19.204;2023-04-01T05:54:20;9.60;86.70
76305;DHT22;65111;50.536;19.204;2023-04-01T05:56:46;9.70;86.70
76305;DHT22;65111;50.536;19.204;2023-04-01T05:59:12;9.70;86.70
76305;DHT22;65111;50.536;19.204;2023-04-01T06:01:39;10.00;86.50
76305;DHT22;65111;50.536;19.204;2023-04-01T06:04:05;10.20;85.90
76305;DHT22;65111;50.536;19.204;2023-04-01T06:06:32;10.20;85.50
76305;DHT22;65111;50.536;19.204;2023-04-01T06:09:06;10.20;85.20
76305;DHT22;65111;50.536;19.204;2023-04-01T06:20:15;10.80;83.80
76305;DHT22;65111;50.536;19.204;2023-04-01T06:28:48;10.90;83.40
76305;DHT22;65111;50.536;19.204;2023-04-01T06:34:31;11.00;83.20
76305;DHT22;65111;50.536;19.204;2023-04-01T06:45:37;11.10;83.50
76305;DHT22;65111;50.536;19.204;2023-04-01T06:48:21;11.20;83.60
76305;DHT22;65111;50.536;19.204;2023-04-01T06:54:04;11.70;82.40
76305;DHT22;65111;50.536;19.204;2023-04-01T06:56:32;11.60;81.70
76305;DHT22;65111;50.536;19.204;2023-04-01T06:59:02;11.50;81.80
76305;DHT22;65111;50.536;19.204;2023-04-01T07:01:37;11.20;82.00
76305;DHT22;65111;50.536;19.204;2023-04-01T07:04:13;11.10;82.60
76305;DHT22;65111;50.536;19.204;2023-04-01T07:06:47;11.00;82.80
76305;DHT22;65111;50.536;19.204;2023-04-01T07:09:18;10.80;83.20
76305;DHT22;65111;50.536;19.204;2023-04-01T07:11:45;10.70;83.40
76305;DHT22;65111;50.536;19.204;2023-04-01T07:14:27;10.80;83.70
76305;DHT22;65111;50.536;19.204;2023-04-01T07:17:00;10.80;83.80
76305;DHT22;65111;50.536;19.204;2023-04-01T07:25:24;10.70;84.00
76305;DHT22;65111;50.536;19.204;2023-04-01T07:27:53;10.80;84.20
76305;DHT22;65111;50.536;19.204;2023-04-01T07:30:23;11.00;84.30
76305;DHT22;65111;50.536;19.204;2023-04-01T07:33:34;11.30;84.00
76305;DHT22;65111;50.536;19.204;2023-04-01T07:36:27;11.60;83.30
76305;DHT22;65111;50.536;19.204;2023-04-01T07:39:13;11.60;82.50
76305;DHT22;65111;50.536;19.204;2023-04-01T07:42:01;11.40;82.60
76305;DHT22;65111;50.536;19.204;2023-04-01T07:47:43;11.30;83.30
76305;DHT22;65111;50.536;19.204;2023-04-01T07:50:28;11.20;83.10
76305;DHT22;65111;50.536;19.204;2023-04-01T08:09:25;10.90;85.00
76305;DHT22;65111;50.536;19.204;2023-04-01T08:12:59;11.20;85.10
76305;DHT22;65111;50.536;19.204;2023-04-01T08:15:21;12.00;83.80
76305;DHT22;65111;50.536;19.204;2023-04-01T08:23:15;12.90;79.90
76305;DHT22;65111;50.536;19.204;2023-04-01T08:25:57;12.90;79.40
76305;DHT22;65111;50.536;19.204;2023-04-01T08:28:32;12.60;80.30
76305;DHT22;65111;50.536;19.204;2023-04-01T08:33:31;12.30;81.20
76305;DHT22;65111;50.536;19.204;2023-04-01T08:36:19;12.20;81.40
76305;DHT22;65111;50.536;19.204;2023-04-01T08:38:55;12.10;81.30
76305;DHT22;65111;50.536;19.204;2023-04-01T08:47:04;12.00;81.80
76305;DHT22;65111;50.536;19.204;2023-04-01T08:52:48;12.80;81.30
76305;DHT22;65111;50.536;19.204;2023-04-01T09:00:58;13.50;78.70
76305;DHT22;65111;50.536;19.204;2023-04-01T09:03:44;13.50;78.30
76305;DHT22;65111;50.536;19.204;2023-04-01T09:06:33;13.40;78.00
76305;DHT22;65111;50.536;19.204;2023-04-01T09:09:25;13.30;77.90
76305;DHT22;65111;50.536;19.204;2023-04-01T09:11:59;13.10;77.80
76305;DHT22;65111;50.536;19.204;2023-04-01T09:31:14;14.90;77.40
76305;DHT22;65111;50.536;19.204;2023-04-01T09:36:44;16.20;70.40
76305;DHT22;65111;50.536;19.204;2023-04-01T09:39:18;15.90;69.70
76305;DHT22;65111;50.536;19.204;2023-04-01T09:45:01;14.90;72.10
76305;DHT22;65111;50.536;19.204;2023-04-01T09:53:45;14.80;73.60
76305;DHT22;65111;50.536;19.204;2023-04-01T09:59:21;14.90;74.20
76305;DHT22;65111;50.536;19.204;2023-04-01T10:24:46;16.70;66.00
76305;DHT22;65111;50.536;19.204;2023-04-01T10:30:13;15.70;69.90
76305;DHT22;65111;50.536;19.204;2023-04-01T10:47:12;15.40;71.40
76305;DHT22;65111;50.536;19.204;2023-04-01T10:55:37;14.70;73.10
76305;DHT22;65111;50.536;19.204;2023-04-01T10:58:14;14.60;73.80
76305;DHT22;65111;50.536;19.204;2023-04-01T11:15:37;16.30;74.10
76305;DHT22;65111;50.536;19.204;2023-04-01T11:24:15;19.00;62.40
76305;DHT22;65111;50.536;19.204;2023-04-01T11:27:00;19.00;63.00
76305;DHT22;65111;50.536;19.204;2023-04-01T11:40:51;19.70;59.10
76305;DHT22;65111;50.536;19.204;2023-04-01T11:43:32;19.50;59.10
76305;DHT22;65111;50.536;19.204;2023-04-01T11:49:14;23.40;55.50
76305;DHT22;65111;50.536;19.204;2023-04-01T12:00:00;27.10;43.50
76305;DHT22;65111;50.536;19.204;2023-04-01T12:02:52;25.50;44.70
76305;DHT22;65111;50.536;19.204;2023-04-01T12:13:57;19.50;55.00
76305;DHT22;65111;50.536;19.204;2023-04-01T12:16:46;19.90;55.20
76305;DHT22;65111;50.536;19.204;2023-04-01T12:19:44;20.40;54.70
76305;DHT22;65111;50.536;19.204;2023-04-01T12:33:25;17.20;60.80
76305;DHT22;65111;50.536;19.204;2023-04-01T12:47:54;16.80;63.90
76305;DHT22;65111;50.536;19.204;2023-04-01T12:51:00;16.80;63.60
76305;DHT22;65111;50.536;19.204;2023-04-01T12:53:45;16.40;64.60
76305;DHT22;65111;50.536;19.204;2023-04-01T12:56:32;15.80;66.10
76305;DHT22;65111;50.536;19.204;2023-04-01T13:02:28;14.60;70.10
76305;DHT22;65111;50.536;19.204;2023-04-01T13:05:20;14.40;73.10
76305;DHT22;65111;50.536;19.204;2023-04-01T13:10:39;15.50;70.20
76305;DHT22;65111;50.536;19.204;2023-04-01T13:15:58;15.60;68.00
76305;DHT22;65111;50.536;19.204;2023-04-01T13:21:34;14.60;70.10
76305;DHT22;65111;50.536;19.204;2023-04-01T13:29:38;13.40;72.10
76305;DHT22;65111;50.536;19.204;2023-04-01T13:43:14;12.00;76.70
76305;DHT22;65111;50.536;19.204;2023-04-01T13:45:57;11.90;77.30
76305;DHT22;65111;50.536;19.204;2023-04-01T13:48:54;11.70;78.30
76305;DHT22;65111;50.536;19.204;2023-04-01T13:54:28;11.60;79.20
76305;DHT22;65111;50.536;19.204;2023-04-01T14:03:12;11.50;79.60
76305;DHT22;65111;50.536;19.204;2023-04-01T14:08:55;11.10;80.40
76305;DHT22;65111;50.536;19.204;2023-04-01T14:22:45;10.40;82.50
76305;DHT22;65111;50.536;19.204;2023-04-01T14:39:00;11.00;83.00
76305;DHT22;65111;50.536;19.204;2023-04-01T14:50:28;12.70;80.60
76305;DHT22;65111;50.536;19.204;2023-04-01T14:55:34;13.10;79.30
76305;DHT22;65111;50.536;19.204;2023-04-01T14:58:11;13.30;79.00
76305;DHT22;65111;50.536;19.204;2023-04-01T15:09:01;13.60;77.80
76305;DHT22;65111;50.536;19.204;2023-04-01T15:11:54;13.60;77.70
76305;DHT22;65111;50.536;19.204;2023-04-01T15:25:51;13.20;78.30
76305;DHT22;65111;50.536;19.204;2023-04-01T15:31:29;12.90;78.90
76305;DHT22;65111;50.536;19.204;2023-04-01T15:34:07;13.00;79.00
76305;DHT22;65111;50.536;19.204;2023-04-01T15:42:43;12.80;79.70
76305;DHT22;65111;50.536;19.204;2023-04-01T15:48:24;12.70;79.90
76305;DHT22;65111;50.536;19.204;2023-04-01T15:56:51;12.70;80.80
76305;DHT22;65111;50.536;19.204;2023-04-01T16:08:13;12.50;81.10
76305;DHT22;65111;50.536;19.204;2023-04-01T16:17:05;12.20;81.60
76305;DHT22;65111;50.536;19.204;2023-04-01T16:27:53;11.60;82.30
76305;DHT22;65111;50.536;19.204;2023-04-01T16:30:34;11.40;82.80
76305;DHT22;65111;50.536;19.204;2023-04-01T16:33:10;11.40;83.00
76305;DHT22;65111;50.536;19.204;2023-04-01T16:35:46;11.20;83.20
76305;DHT22;65111;50.536;19.204;2023-04-01T16:43:55;11.00;83.90
76305;DHT22;65111;50.536;19.204;2023-04-01T16:46:40;10.90;84.10
76305;DHT22;65111;50.536;19.204;2023-04-01T16:49:33;10.80;84.20
76305;DHT22;65111;50.536;19.204;2023-04-01T16:57:18;10.50;84.90
76305;DHT22;65111;50.536;19.204;2023-04-01T17:00:15;10.50;84.90
76305;DHT22;65111;50.536;19.204;2023-04-01T17:05:54;10.40;85.70
76305;DHT22;65111;50.536;19.204;2023-04-01T17:14:21;10.20;86.00
76305;DHT22;65111;50.536;19.204;2023-04-01T17:19:56;10.00;86.40
76305;DHT22;65111;50.536;19.204;2023-04-01T17:25:16;10.00;86.30
76305;DHT22;65111;50.536;19.204;2023-04-01T17:28:10;10.00;86.30
76305;DHT22;65111;50.536;19.204;2023-04-01T17:30:43;9.80;86.30
76305;DHT22;65111;50.536;19.204;2023-04-01T17:33:36;9.90;86.20
76305;DHT22;65111;50.536;19.204;2023-04-01T17:39:16;9.80;86.30
76305;DHT22;65111;50.536;19.204;2023-04-01T17:41:54;9.70;86.60
76305;DHT22;65111;50.536;19.204;2023-04-01T17:53:31;9.70;87.20
76305;DHT22;65111;50.536;19.204;2023-04-01T17:56:08;9.70;87.40
76305;DHT22;65111;50.536;19.204;2023-04-01T17:58:44;9.70;87.30
76305;DHT22;65111;50.536;19.204;2023-04-01T18:09:56;9.80;87.30
76305;DHT22;65111;50.536;19.204;2023-04-01T18:27:06;9.60;87.50
76305;DHT22;65111;50.536;19.204;2023-04-01T18:29:53;9.70;87.70
76305;DHT22;65111;50.536;19.204;2023-04-01T18:35:29;9.60;87.70
76305;DHT22;65111;50.536;19.204;2023-04-01T18:41:01;9.50;87.80
76305;DHT22;65111;50.536;19.204;2023-04-01T18:47:05;9.50;88.00
76305;DHT22;65111;50.536;19.204;2023-04-01T18:52:36;9.50;88.00
76305;DHT22;65111;50.536;19.204;2023-04-01T18:57:49;9.50;88.20
76305;DHT22;65111;50.536;19.204;2023-04-01T19:00:32;9.40;88.00
76305;DHT22;65111;50.536;19.204;2023-04-01T19:03:08;9.40;88.20
76305;DHT22;65111;50.536;19.204;2023-04-01T19:05:39;9.40;88.20
76305;DHT22;65111;50.536;19.204;2023-04-01T19:08:32;9.40;88.20
76305;DHT22;65111;50.536;19.204;2023-04-01T19:11:20;9.40;88.30
76305;DHT22;65111;50.536;19.204;2023-04-01T19:17:04;9.40;88.30
76305;DHT22;65111;50.536;19.204;2023-04-01T19:22:21;9.50;88.40
76305;DHT22;65111;50.536;19.204;2023-04-01T19:30:35;9.50;88.50
76305;DHT22;65111;50.536;19.204;2023-04-01T19:38:32;9.60;88.50
76305;DHT22;65111;50.536;19.204;2023-04-01T19:41:27;9.60;88.50
76305;DHT22;65111;50.536;19.204;2023-04-01T19:44:09;9.60;88.60
76305;DHT22;65111;50.536;19.204;2023-04-01T19:46:44;9.50;88.60
76305;DHT22;65111;50.536;19.204;2023-04-01T19:52:05;9.60;88.50
76305;DHT22;65111;50.536;19.204;2023-04-01T20:00:02;9.60;88.70
76305;DHT22;65111;50.536;19.204;2023-04-01T20:05:56;9.60;88.70
76305;DHT22;65111;50.536;19.204;2023-04-01T20:08:42;9.60;88.70
76305;DHT22;65111;50.536;19.204;2023-04-01T20:19:42;9.60;88.70
76305;DHT22;65111;50.536;19.204;2023-04-01T20:22:37;9.50;88.70
76305;DHT22;65111;50.536;19.204;2023-04-01T20:25:16;9.50;88.70
76305;DHT22;65111;50.536;19.204;2023-04-01T20:28:21;9.50;88.70
76305;DHT22;65111;50.536;19.204;2023-04-01T20:34:22;9.50;88.60
76305;DHT22;65111;50.536;19.204;2023-04-01T20:39:57;9.50;88.60
76305;DHT22;65111;50.536;19.204;2023-04-01T20:42:49;9.60;88.60
76305;DHT22;65111;50.536;19.204;2023-04-01T20:48:22;9.50;88.60
76305;DHT22;65111;50.536;19.204;2023-04-01T20:50:55;9.40;88.70
76305;DHT22;65111;50.536;19.204;2023-04-01T20:53:53;9.50;88.60
76305;DHT22;65111;50.536;19.204;2023-04-01T20:56:29;9.40;88.60
76305;DHT22;65111;50.536;19.204;2023-04-01T21:02:08;9.30;88.90
76305;DHT22;65111;50.536;19.204;2023-04-01T21:07:27;9.30;88.80
76305;DHT22;65111;50.536;19.204;2023-04-01T21:15:46;9.00;89.20
76305;DHT22;65111;50.536;19.204;2023-04-01T21:18:35;9.00;89.20
76305;DHT22;65111;50.536;19.204;2023-04-01T21:30:19;8.90;89.90
76305;DHT22;65111;50.536;19.204;2023-04-01T21:58:35;9.20;90.00
76305;DHT22;65111;50.536;19.204;2023-04-01T22:01:32;9.30;90.10
76305;DHT22;65111;50.536;19.204;2023-04-01T22:07:06;9.20;89.90
76305;DHT22;65111;50.536;19.204;2023-04-01T22:12:09;9.20;89.90
76305;DHT22;65111;50.536;19.204;2023-04-01T22:17:16;9.20;89.90
76305;DHT22;65111;50.536;19.204;2023-04-01T22:22:22;9.20;89.90
76305;DHT22;65111;50.536;19.204;2023-04-01T22:27:29;9.20;89.80
76305;DHT22;65111;50.536;19.204;2023-04-01T22:32:41;9.30;89.90
76305;DHT22;65111;50.536;19.204;2023-04-01T22:35:26;9.30;89.80
76305;DHT22;65111;50.536;19.204;2023-04-01T22:38:03;9.30;89.90
76305;DHT22;65111;50.536;19.204;2023-04-01T22:40:49;9.30;89.90
76305;DHT22;65111;50.536;19.204;2023-04-01T22:43:27;9.20;89.80
76305;DHT22;65111;50.536;19.204;2023-04-01T22:46:32;9.30;89.90
76305;DHT22;65111;50.536;19.204;2023-04-01T22:49:14;9.30;90.00
76305;DHT22;65111;50.536;19.204;2023-04-01T22:51:47;9.40;90.10
76305;DHT22;65111;50.536;19.204;2023-04-01T22:54:54;9.30;90.10
76305;DHT22;65111;50.536;19.204;2023-04-01T22:57:50;9.30;90.10
76305;DHT22;65111;50.536;19.204;2023-04-01T23:00:39;9.30;90.10
76305;DHT22;65111;50.536;19.204;2023-04-01T23:03:25;9.30;90.10
76305;DHT22;65111;50.536;19.204;2023-04-01T23:06:01;9.30;90.30
76305;DHT22;65111;50.536;19.204;2023-04-01T23:14:39;9.20;90.30
76305;DHT22;65111;50.536;19.204;2023-04-01T23:22:34;9.20;90.50
76305;DHT22;65111;50.536;19.204;2023-04-01T23:30:51;9.10;90.60
76305;DHT22;65111;50.536;19.204;2023-04-01T23:35:50;9.10;90.50
76305;DHT22;65111;50.536;19.204;2023-04-01T23:38:18;9.10;90.30
76305;DHT22;65111;50.536;19.204;2023-04-01T23:40:49;9.10;90.40
76305;DHT22;65111;50.536;19.204;2023-04-01T23:43:32;9.10;90.40
76305;DHT22;65111;50.536;19.204;2023-04-01T23:46:02;9.10;90.40
76305;DHT22;65111;50.536;19.204;2023-04-01T23:48:41;9.10;90.40
76305;DHT22;65111;50.536;19.204;2023-04-01T23:51:29;9.00;90.30
76305;DHT22;65111;50.536;19.204;2023-04-01T23:54:19;9.00;90.20
76305;DHT22;65111;50.536;19.204;2023-04-01T23:56:54;9.00;90.30
76305;DHT22;65111;50.536;19.204;2023-04-01T23:59:27;9.00;90.30
